sensor_id;sensor_type;location;lat;lon;timestamp;temperature;humidity
19180;DHT22;9722;48.754;8.868;2023-07-20T00:01:26;18.30;59.80
19180;DHT22;9722;48.754;8.868;2023-07-20T00:04:46;18.30;59.80
19180;DHT22;9722;48.754;8.868;2023-07-20T00:08:07;18.20;59.50
19180;DHT22;9722;48.754;8.868;2023-07-20T00:11:27;18.10;59.00
19180;DHT22;9722;48.754;8.868;2023-07-20T00:14:48;18.10;59.30
19180;DHT22;9722;48.754;8.868;2023-07-20T00:18:08;18.10;59.30
19180;DHT22;9722;48.754;8.868;2023-07-20T00:21:29;18.10;59.60
19180;DHT22;9722;48.754;8.868;2023-07-20T00:24:49;18.00;60.20
19180;DHT22;9722;48.754;8.868;2023-07-20T00:28:10;17.90;61.10
19180;DHT22;9722;48.754;8.868;2023-07-20T00:31:30;17.80;61.00
19180;DHT22;9722;48.754;8.868;2023-07-20T00:34:51;17.80;61.10
19180;DHT22;9722;48.754;8.868;2023-07-20T00:38:11;17.70;61.10
19180;DHT22;9722;48.754;8.868;2023-07-20T00:41:32;17.70;61.20
19180;DHT22;9722;48.754;8.868;2023-07-20T00:44:53;17.60;61.20
19180;DHT22;9722;48.754;8.868;2023-07-20T00:48:14;17.70;61.30
19180;DHT22;9722;48.754;8.868;2023-07-20T00:51:35;17.60;61.20
19180;DHT22;9722;48.754;8.868;2023-07-20T00:54:56;17.60;61.30
19180;DHT22;9722;48.754;8.868;2023-07-20T00:58:16;17.60;61.40
19180;DHT22;9722;48.754;8.868;2023-07-20T01:01:37;17.50;61.30
19180;DHT22;9722;48.754;8.868;2023-07-20T01:04:58;17.50;61.40
19180;DHT22;9722;48.754;8.868;2023-07-20T01:08:26;17.40;61.60
19180;DHT22;9722;48.754;8.868;2023-07-20T01:11:57;17.30;61.70
19180;DHT22;9722;48.754;8.868;2023-07-20T01:15:20;17.30;62.10
19180;DHT22;9722;48.754;8.868;2023-07-20T01:18:40;17.20;62.10
19180;DHT22;9722;48.754;8.868;2023-07-20T01:30:02;17.00;63.00
19180;DHT22;9722;48.754;8.868;2023-07-20T01:33:25;16.90;63.60
19180;DHT22;9722;48.754;8.868;2023-07-20T01:36:47;16.80;63.50
19180;DHT22;9722;48.754;8.868;2023-07-20T01:40:10;16.80;63.70
19180;DHT22;9722;48.754;8.868;2023-07-20T01:43:32;16.70;64.20
19180;DHT22;9722;48.754;8.868;2023-07-20T01:46:52;16.70;64.40
19180;DHT22;9722;48.754;8.868;2023-07-20T01:50:13;16.60;64.60
19180;DHT22;9722;48.754;8.868;2023-07-20T01:53:33;16.60;64.80
19180;DHT22;9722;48.754;8.868;2023-07-20T01:56:54;16.50;65.00
19180;DHT22;9722;48.754;8.868;2023-07-20T02:00:15;16.50;65.20
19180;DHT22;9722;48.754;8.868;2023-07-20T02:03:35;16.40;65.50
19180;DHT22;9722;48.754;8.868;2023-07-20T02:06:56;16.40;65.70
19180;DHT22;9722;48.754;8.868;2023-07-20T02:10:16;16.30;65.70
19180;DHT22;9722;48.754;8.868;2023-07-20T02:13:37;16.30;66.00
19180;DHT22;9722;48.754;8.868;2023-07-20T02:16:57;16.30;66.60
19180;DHT22;9722;48.754;8.868;2023-07-20T02:20:20;16.20;66.80
19180;DHT22;9722;48.754;8.868;2023-07-20T02:23:41;16.20;67.30
19180;DHT22;9722;48.754;8.868;2023-07-20T02:27:01;16.10;67.70
19180;DHT22;9722;48.754;8.868;2023-07-20T02:30:22;16.00;67.90
19180;DHT22;9722;48.754;8.868;2023-07-20T02:33:42;16.00;68.30
19180;DHT22;9722;48.754;8.868;2023-07-20T02:37:03;15.90;68.70
19180;DHT22;9722;48.754;8.868;2023-07-20T02:40:24;15.80;69.40
19180;DHT22;9722;48.754;8.868;2023-07-20T02:43:44;15.70;70.20
19180;DHT22;9722;48.754;8.868;2023-07-20T02:47:05;15.50;70.50
19180;DHT22;9722;48.754;8.868;2023-07-20T02:50:26;15.50;71.10
19180;DHT22;9722;48.754;8.868;2023-07-20T02:53:46;15.40;71.40
19180;DHT22;9722;48.754;8.868;2023-07-20T02:57:07;15.40;71.60
19180;DHT22;9722;48.754;8.868;2023-07-20T03:00:27;15.40;71.80
19180;DHT22;9722;48.754;8.868;2023-07-20T03:03:48;15.40;72.00
19180;DHT22;9722;48.754;8.868;2023-07-20T03:07:10;15.50;72.20
19180;DHT22;9722;48.754;8.868;2023-07-20T03:10:30;15.50;72.20
19180;DHT22;9722;48.754;8.868;2023-07-20T03:13:51;15.50;73.20
19180;DHT22;9722;48.754;8.868;2023-07-20T03:17:11;15.50;72.60
19180;DHT22;9722;48.754;8.868;2023-07-20T03:20:32;15.50;72.80
19180;DHT22;9722;48.754;8.868;2023-07-20T03:23:52;15.50;73.00
19180;DHT22;9722;48.754;8.868;2023-07-20T03:27:13;15.40;73.30
19180;DHT22;9722;48.754;8.868;2023-07-20T03:30:35;15.40;73.80
19180;DHT22;9722;48.754;8.868;2023-07-20T03:33:55;15.40;74.20
19180;DHT22;9722;48.754;8.868;2023-07-20T03:37:16;15.30;74.60
19180;DHT22;9722;48.754;8.868;2023-07-20T03:40:36;15.20;75.20
19180;DHT22;9722;48.754;8.868;2023-07-20T03:43:57;15.20;75.60
19180;DHT22;9722;48.754;8.868;2023-07-20T03:47:17;15.20;76.00
19180;DHT22;9722;48.754;8.868;2023-07-20T03:50:38;15.20;76.40
19180;DHT22;9722;48.754;8.868;2023-07-20T03:53:59;15.20;76.70
19180;DHT22;9722;48.754;8.868;2023-07-20T03:57:19;15.20;77.00
19180;DHT22;9722;48.754;8.868;2023-07-20T04:00:43;15.20;77.40
19180;DHT22;9722;48.754;8.868;2023-07-20T04:04:06;15.10;77.80
19180;DHT22;9722;48.754;8.868;2023-07-20T04:07:27;15.10;78.30
19180;DHT22;9722;48.754;8.868;2023-07-20T04:10:47;15.10;78.90
19180;DHT22;9722;48.754;8.868;2023-07-20T04:14:08;15.10;79.40
19180;DHT22;9722;48.754;8.868;2023-07-20T04:17:28;15.10;79.90
19180;DHT22;9722;48.754;8.868;2023-07-20T04:20:49;15.10;80.40
19180;DHT22;9722;48.754;8.868;2023-07-20T04:24:10;15.20;80.70
19180;DHT22;9722;48.754;8.868;2023-07-20T04:27:30;15.20;80.80
19180;DHT22;9722;48.754;8.868;2023-07-20T04:30:52;15.30;81.00
19180;DHT22;9722;48.754;8.868;2023-07-20T04:34:12;15.40;81.00
19180;DHT22;9722;48.754;8.868;2023-07-20T04:37:33;15.50;81.10
19180;DHT22;9722;48.754;8.868;2023-07-20T04:40:54;15.60;81.20
19180;DHT22;9722;48.754;8.868;2023-07-20T04:44:14;15.70;81.40
19180;DHT22;9722;48.754;8.868;2023-07-20T04:47:34;15.80;82.50
19180;DHT22;9722;48.754;8.868;2023-07-20T04:50:55;15.90;81.80
19180;DHT22;9722;48.754;8.868;2023-07-20T04:54:16;16.00;81.60
19180;DHT22;9722;48.754;8.868;2023-07-20T04:57:37;16.20;81.40
19180;DHT22;9722;48.754;8.868;2023-07-20T05:00:57;16.30;81.90
19180;DHT22;9722;48.754;8.868;2023-07-20T05:04:18;16.40;81.10
19180;DHT22;9722;48.754;8.868;2023-07-20T05:07:38;16.50;80.60
19180;DHT22;9722;48.754;8.868;2023-07-20T05:11:02;16.60;80.30
19180;DHT22;9722;48.754;8.868;2023-07-20T05:14:23;16.70;80.10
19180;DHT22;9722;48.754;8.868;2023-07-20T05:17:43;16.80;80.20
19180;DHT22;9722;48.754;8.868;2023-07-20T05:21:05;16.90;80.40
19180;DHT22;9722;48.754;8.868;2023-07-20T05:24:26;17.00;80.40
19180;DHT22;9722;48.754;8.868;2023-07-20T05:27:46;17.10;80.40
19180;DHT22;9722;48.754;8.868;2023-07-20T05:31:07;17.20;80.40
19180;DHT22;9722;48.754;8.868;2023-07-20T05:34:28;17.20;80.20
19180;DHT22;9722;48.754;8.868;2023-07-20T05:37:48;17.30;79.80
19180;DHT22;9722;48.754;8.868;2023-07-20T05:41:09;17.40;78.80
19180;DHT22;9722;48.754;8.868;2023-07-20T05:44:30;17.50;78.00
19180;DHT22;9722;48.754;8.868;2023-07-20T05:47:51;17.70;77.40
19180;DHT22;9722;48.754;8.868;2023-07-20T05:51:11;17.90;76.90
19180;DHT22;9722;48.754;8.868;2023-07-20T05:54:32;18.10;76.50
19180;DHT22;9722;48.754;8.868;2023-07-20T05:57:52;18.30;75.60
19180;DHT22;9722;48.754;8.868;2023-07-20T06:01:15;18.60;75.00
19180;DHT22;9722;48.754;8.868;2023-07-20T06:04:35;18.80;73.90
19180;DHT22;9722;48.754;8.868;2023-07-20T06:07:56;19.00;73.30
19180;DHT22;9722;48.754;8.868;2023-07-20T06:11:17;19.20;72.20
19180;DHT22;9722;48.754;8.868;2023-07-20T06:14:38;19.30;71.30
19180;DHT22;9722;48.754;8.868;2023-07-20T06:17:59;19.50;70.50
19180;DHT22;9722;48.754;8.868;2023-07-20T06:21:19;19.50;69.80
19180;DHT22;9722;48.754;8.868;2023-07-20T06:24:40;19.70;69.50
19180;DHT22;9722;48.754;8.868;2023-07-20T06:28:00;19.80;68.90
19180;DHT22;9722;48.754;8.868;2023-07-20T06:31:21;19.80;68.30
19180;DHT22;9722;48.754;8.868;2023-07-20T06:34:41;20.00;68.30
19180;DHT22;9722;48.754;8.868;2023-07-20T06:38:02;20.20;67.20
19180;DHT22;9722;48.754;8.868;2023-07-20T06:41:24;20.40;66.30
19180;DHT22;9722;48.754;8.868;2023-07-20T06:44:44;20.70;65.30
19180;DHT22;9722;48.754;8.868;2023-07-20T06:48:05;21.00;64.00
19180;DHT22;9722;48.754;8.868;2023-07-20T06:51:26;21.40;62.80
19180;DHT22;9722;48.754;8.868;2023-07-20T06:54:47;22.00;60.70
19180;DHT22;9722;48.754;8.868;2023-07-20T06:58:07;22.50;59.20
19180;DHT22;9722;48.754;8.868;2023-07-20T07:01:28;22.90;58.30
19180;DHT22;9722;48.754;8.868;2023-07-20T07:04:48;23.50;57.30
19180;DHT22;9722;48.754;8.868;2023-07-20T07:08:09;23.80;56.00
19180;DHT22;9722;48.754;8.868;2023-07-20T07:11:29;24.00;55.60
19180;DHT22;9722;48.754;8.868;2023-07-20T07:14:50;24.30;54.70
19180;DHT22;9722;48.754;8.868;2023-07-20T07:18:11;24.50;54.20
19180;DHT22;9722;48.754;8.868;2023-07-20T07:21:31;24.70;53.60
19180;DHT22;9722;48.754;8.868;2023-07-20T07:24:52;24.90;53.30
19180;DHT22;9722;48.754;8.868;2023-07-20T07:28:12;25.20;52.40
19180;DHT22;9722;48.754;8.868;2023-07-20T07:31:34;25.40;52.00
19180;DHT22;9722;48.754;8.868;2023-07-20T07:34:56;25.80;52.00
19180;DHT22;9722;48.754;8.868;2023-07-20T07:38:19;26.30;50.50
19180;DHT22;9722;48.754;8.868;2023-07-20T07:41:39;26.40;50.30
19180;DHT22;9722;48.754;8.868;2023-07-20T07:45:00;26.00;50.80
19180;DHT22;9722;48.754;8.868;2023-07-20T07:48:21;25.70;51.40
19180;DHT22;9722;48.754;8.868;2023-07-20T07:51:42;26.30;51.00
19180;DHT22;9722;48.754;8.868;2023-07-20T07:55:03;27.30;50.10
19180;DHT22;9722;48.754;8.868;2023-07-20T07:58:24;27.90;47.90
19180;DHT22;9722;48.754;8.868;2023-07-20T08:01:45;28.00;47.60
19180;DHT22;9722;48.754;8.868;2023-07-20T08:05:05;28.70;47.10
19180;DHT22;9722;48.754;8.868;2023-07-20T08:08:26;29.00;45.60
19180;DHT22;9722;48.754;8.868;2023-07-20T08:11:46;28.90;45.70
19180;DHT22;9722;48.754;8.868;2023-07-20T08:15:11;29.70;45.30
19180;DHT22;9722;48.754;8.868;2023-07-20T08:18:31;29.60;44.70
19180;DHT22;9722;48.754;8.868;2023-07-20T08:21:52;29.10;45.20
19180;DHT22;9722;48.754;8.868;2023-07-20T08:25:12;28.90;44.70
19180;DHT22;9722;48.754;8.868;2023-07-20T08:28:34;29.20;44.60
19180;DHT22;9722;48.754;8.868;2023-07-20T08:31:54;29.90;43.60
19180;DHT22;9722;48.754;8.868;2023-07-20T08:35:15;30.80;42.80
19180;DHT22;9722;48.754;8.868;2023-07-20T08:38:36;31.40;41.00
19180;DHT22;9722;48.754;8.868;2023-07-20T08:41:59;31.70;40.10
19180;DHT22;9722;48.754;8.868;2023-07-20T08:45:26;31.70;39.20
19180;DHT22;9722;48.754;8.868;2023-07-20T08:48:47;31.50;39.00
19180;DHT22;9722;48.754;8.868;2023-07-20T08:52:08;31.20;39.40
19180;DHT22;9722;48.754;8.868;2023-07-20T08:55:30;30.60;39.40
19180;DHT22;9722;48.754;8.868;2023-07-20T08:58:55;30.70;39.30
19180;DHT22;9722;48.754;8.868;2023-07-20T09:02:17;31.50;39.30
19180;DHT22;9722;48.754;8.868;2023-07-20T09:05:38;32.60;38.50
19180;DHT22;9722;48.754;8.868;2023-07-20T09:09:00;33.40;37.10
19180;DHT22;9722;48.754;8.868;2023-07-20T09:12:21;34.40;36.10
19180;DHT22;9722;48.754;8.868;2023-07-20T09:15:48;34.20;35.50
19180;DHT22;9722;48.754;8.868;2023-07-20T09:19:15;33.40;35.30
19180;DHT22;9722;48.754;8.868;2023-07-20T09:22:36;32.30;36.10
19180;DHT22;9722;48.754;8.868;2023-07-20T09:26:00;31.70;37.20
19180;DHT22;9722;48.754;8.868;2023-07-20T09:29:21;32.30;36.70
19180;DHT22;9722;48.754;8.868;2023-07-20T09:32:47;32.60;36.10
19180;DHT22;9722;48.754;8.868;2023-07-20T09:36:09;33.00;36.10
19180;DHT22;9722;48.754;8.868;2023-07-20T09:39:31;33.40;35.40
19180;DHT22;9722;48.754;8.868;2023-07-20T09:42:53;33.90;34.60
19180;DHT22;9722;48.754;8.868;2023-07-20T09:46:20;33.70;34.00
19180;DHT22;9722;48.754;8.868;2023-07-20T09:49:41;33.00;34.60
19180;DHT22;9722;48.754;8.868;2023-07-20T09:53:01;32.40;35.40
19180;DHT22;9722;48.754;8.868;2023-07-20T09:56:22;32.70;35.40
19180;DHT22;9722;48.754;8.868;2023-07-20T09:59:44;33.30;34.80
19180;DHT22;9722;48.754;8.868;2023-07-20T10:03:05;33.20;34.70
19180;DHT22;9722;48.754;8.868;2023-07-20T10:06:27;32.80;35.20
19180;DHT22;9722;48.754;8.868;2023-07-20T10:09:51;33.40;33.80
19180;DHT22;9722;48.754;8.868;2023-07-20T10:13:24;34.20;33.00
19180;DHT22;9722;48.754;8.868;2023-07-20T10:16:55;35.10;32.30
19180;DHT22;9722;48.754;8.868;2023-07-20T10:20:19;35.70;31.50
19180;DHT22;9722;48.754;8.868;2023-07-20T10:23:41;36.10;30.60
19180;DHT22;9722;48.754;8.868;2023-07-20T10:27:02;36.20;29.80
19180;DHT22;9722;48.754;8.868;2023-07-20T10:30:23;36.10;29.90
19180;DHT22;9722;48.754;8.868;2023-07-20T10:33:46;36.50;29.80
19180;DHT22;9722;48.754;8.868;2023-07-20T10:37:06;36.70;29.10
19180;DHT22;9722;48.754;8.868;2023-07-20T10:43:48;37.50;28.50
19180;DHT22;9722;48.754;8.868;2023-07-20T10:47:11;38.10;28.00
19180;DHT22;9722;48.754;8.868;2023-07-20T10:50:33;38.60;27.70
19180;DHT22;9722;48.754;8.868;2023-07-20T10:53:57;38.00;27.80
19180;DHT22;9722;48.754;8.868;2023-07-20T10:57:24;37.70;27.70
19180;DHT22;9722;48.754;8.868;2023-07-20T11:04:17;39.10;27.50
19180;DHT22;9722;48.754;8.868;2023-07-20T11:07:40;39.90;27.10
19180;DHT22;9722;48.754;8.868;2023-07-20T11:11:30;40.50;26.50
19180;DHT22;9722;48.754;8.868;2023-07-20T11:14:56;41.10;25.40
19180;DHT22;9722;48.754;8.868;2023-07-20T11:18:17;41.30;25.30
19180;DHT22;9722;48.754;8.868;2023-07-20T11:21:38;41.50;25.20
19180;DHT22;9722;48.754;8.868;2023-07-20T11:25:01;41.10;25.00
19180;DHT22;9722;48.754;8.868;2023-07-20T11:28:22;40.60;25.10
19180;DHT22;9722;48.754;8.868;2023-07-20T11:31:43;39.70;25.50
19180;DHT22;9722;48.754;8.868;2023-07-20T11:35:04;38.50;26.50
19180;DHT22;9722;48.754;8.868;2023-07-20T11:38:25;38.20;27.10
19180;DHT22;9722;48.754;8.868;2023-07-20T11:41:50;38.90;26.90
19180;DHT22;9722;48.754;8.868;2023-07-20T11:45:11;40.00;26.30
19180;DHT22;9722;48.754;8.868;2023-07-20T11:48:31;40.80;25.40
19180;DHT22;9722;48.754;8.868;2023-07-20T11:51:52;41.60;25.20
19180;DHT22;9722;48.754;8.868;2023-07-20T11:55:13;41.90;25.20
19180;DHT22;9722;48.754;8.868;2023-07-20T11:58:33;42.30;24.70
19180;DHT22;9722;48.754;8.868;2023-07-20T12:01:54;42.80;24.40
19180;DHT22;9722;48.754;8.868;2023-07-20T12:05:14;43.30;24.20
19180;DHT22;9722;48.754;8.868;2023-07-20T12:08:41;43.50;24.10
19180;DHT22;9722;48.754;8.868;2023-07-20T12:12:09;43.80;23.80
19180;DHT22;9722;48.754;8.868;2023-07-20T12:15:31;44.00;23.90
19180;DHT22;9722;48.754;8.868;2023-07-20T12:19:20;44.30;23.50
19180;DHT22;9722;48.754;8.868;2023-07-20T12:22:40;44.50;22.90
19180;DHT22;9722;48.754;8.868;2023-07-20T12:26:06;44.60;22.90
19180;DHT22;9722;48.754;8.868;2023-07-20T12:29:27;44.90;22.40
19180;DHT22;9722;48.754;8.868;2023-07-20T12:32:47;45.20;22.60
19180;DHT22;9722;48.754;8.868;2023-07-20T12:36:09;45.30;22.00
19180;DHT22;9722;48.754;8.868;2023-07-20T12:39:30;45.10;22.10
19180;DHT22;9722;48.754;8.868;2023-07-20T12:42:51;44.60;22.50
19180;DHT22;9722;48.754;8.868;2023-07-20T12:46:12;44.50;22.50
19180;DHT22;9722;48.754;8.868;2023-07-20T12:49:33;44.50;22.40
19180;DHT22;9722;48.754;8.868;2023-07-20T12:52:54;44.50;22.20
19180;DHT22;9722;48.754;8.868;2023-07-20T12:56:14;44.40;22.20
19180;DHT22;9722;48.754;8.868;2023-07-20T12:59:35;44.00;22.00
19180;DHT22;9722;48.754;8.868;2023-07-20T13:02:56;43.60;22.40
19180;DHT22;9722;48.754;8.868;2023-07-20T13:06:16;43.70;22.60
19180;DHT22;9722;48.754;8.868;2023-07-20T13:09:37;43.10;22.60
19180;DHT22;9722;48.754;8.868;2023-07-20T13:12:58;42.10;22.80
19180;DHT22;9722;48.754;8.868;2023-07-20T13:16:19;41.60;23.00
19180;DHT22;9722;48.754;8.868;2023-07-20T13:19:40;40.30;23.30
19180;DHT22;9722;48.754;8.868;2023-07-20T13:23:00;38.60;24.10
19180;DHT22;9722;48.754;8.868;2023-07-20T13:26:21;37.10;25.30
19180;DHT22;9722;48.754;8.868;2023-07-20T13:29:41;36.50;25.40
19180;DHT22;9722;48.754;8.868;2023-07-20T13:33:02;36.10;26.30
19180;DHT22;9722;48.754;8.868;2023-07-20T13:36:23;36.70;26.50
19180;DHT22;9722;48.754;8.868;2023-07-20T13:39:43;37.20;26.00
19180;DHT22;9722;48.754;8.868;2023-07-20T13:43:04;36.70;26.30
19180;DHT22;9722;48.754;8.868;2023-07-20T13:46:24;35.90;26.80
19180;DHT22;9722;48.754;8.868;2023-07-20T13:49:45;35.10;27.50
19180;DHT22;9722;48.754;8.868;2023-07-20T13:53:05;34.10;28.10
19180;DHT22;9722;48.754;8.868;2023-07-20T13:56:27;33.20;28.90
19180;DHT22;9722;48.754;8.868;2023-07-20T13:59:47;32.50;29.50
19180;DHT22;9722;48.754;8.868;2023-07-20T14:03:08;31.90;30.00
19180;DHT22;9722;48.754;8.868;2023-07-20T14:06:30;31.60;30.80
19180;DHT22;9722;48.754;8.868;2023-07-20T14:09:51;31.30;31.30
19180;DHT22;9722;48.754;8.868;2023-07-20T14:13:12;31.10;31.60
19180;DHT22;9722;48.754;8.868;2023-07-20T14:16:32;30.90;31.80
19180;DHT22;9722;48.754;8.868;2023-07-20T14:19:53;30.80;32.40
19180;DHT22;9722;48.754;8.868;2023-07-20T14:23:13;30.70;32.20
19180;DHT22;9722;48.754;8.868;2023-07-20T14:26:34;30.50;32.30
19180;DHT22;9722;48.754;8.868;2023-07-20T14:29:55;30.40;33.00
19180;DHT22;9722;48.754;8.868;2023-07-20T14:33:16;30.10;32.60
19180;DHT22;9722;48.754;8.868;2023-07-20T14:36:36;29.80;32.80
19180;DHT22;9722;48.754;8.868;2023-07-20T14:39:57;29.70;33.20
19180;DHT22;9722;48.754;8.868;2023-07-20T14:43:21;29.40;33.50
19180;DHT22;9722;48.754;8.868;2023-07-20T14:46:41;29.20;33.60
19180;DHT22;9722;48.754;8.868;2023-07-20T14:50:02;29.10;33.80
19180;DHT22;9722;48.754;8.868;2023-07-20T14:53:23;29.00;34.00
19180;DHT22;9722;48.754;8.868;2023-07-20T14:56:50;29.00;33.80
19180;DHT22;9722;48.754;8.868;2023-07-20T15:00:15;28.80;34.10
19180;DHT22;9722;48.754;8.868;2023-07-20T15:03:35;28.70;34.00
19180;DHT22;9722;48.754;8.868;2023-07-20T15:06:56;28.50;33.90
19180;DHT22;9722;48.754;8.868;2023-07-20T15:10:17;28.40;33.90
19180;DHT22;9722;48.754;8.868;2023-07-20T15:13:37;28.40;34.10
19180;DHT22;9722;48.754;8.868;2023-07-20T15:16:58;28.50;34.30
19180;DHT22;9722;48.754;8.868;2023-07-20T15:20:18;28.50;34.30
19180;DHT22;9722;48.754;8.868;2023-07-20T15:23:39;28.60;34.40
19180;DHT22;9722;48.754;8.868;2023-07-20T15:26:59;28.60;34.60
19180;DHT22;9722;48.754;8.868;2023-07-20T15:30:20;28.70;34.60
19180;DHT22;9722;48.754;8.868;2023-07-20T15:33:40;28.90;34.60
19180;DHT22;9722;48.754;8.868;2023-07-20T15:37:01;28.90;34.70
19180;DHT22;9722;48.754;8.868;2023-07-20T15:40:23;28.90;34.60
19180;DHT22;9722;48.754;8.868;2023-07-20T15:43:43;28.90;34.80
19180;DHT22;9722;48.754;8.868;2023-07-20T15:47:04;29.00;34.70
19180;DHT22;9722;48.754;8.868;2023-07-20T15:50:26;28.90;34.70
19180;DHT22;9722;48.754;8.868;2023-07-20T15:53:47;28.80;35.20
19180;DHT22;9722;48.754;8.868;2023-07-20T15:57:07;28.70;34.50
19180;DHT22;9722;48.754;8.868;2023-07-20T16:00:28;28.50;34.30
19180;DHT22;9722;48.754;8.868;2023-07-20T16:03:49;28.30;34.50
19180;DHT22;9722;48.754;8.868;2023-07-20T16:07:09;28.20;34.60
19180;DHT22;9722;48.754;8.868;2023-07-20T16:10:30;28.10;34.90
19180;DHT22;9722;48.754;8.868;2023-07-20T16:13:51;28.00;35.10
19180;DHT22;9722;48.754;8.868;2023-07-20T16:17:12;27.90;35.30
19180;DHT22;9722;48.754;8.868;2023-07-20T16:20:33;27.90;35.40
19180;DHT22;9722;48.754;8.868;2023-07-20T16:23:53;27.80;35.30
19180;DHT22;9722;48.754;8.868;2023-07-20T16:27:14;27.70;35.50
19180;DHT22;9722;48.754;8.868;2023-07-20T16:30:34;27.60;35.50
19180;DHT22;9722;48.754;8.868;2023-07-20T16:33:55;27.50;35.60
19180;DHT22;9722;48.754;8.868;2023-07-20T16:37:15;27.30;36.00
19180;DHT22;9722;48.754;8.868;2023-07-20T16:40:37;27.10;36.40
19180;DHT22;9722;48.754;8.868;2023-07-20T16:43:57;27.00;36.30
19180;DHT22;9722;48.754;8.868;2023-07-20T16:47:19;26.70;36.40
19180;DHT22;9722;48.754;8.868;2023-07-20T16:50:41;26.50;36.80
19180;DHT22;9722;48.754;8.868;2023-07-20T16:54:02;26.40;37.20
19180;DHT22;9722;48.754;8.868;2023-07-20T16:57:23;26.20;37.20
19180;DHT22;9722;48.754;8.868;2023-07-20T17:00:46;26.10;37.20
19180;DHT22;9722;48.754;8.868;2023-07-20T17:04:07;25.90;37.30
19180;DHT22;9722;48.754;8.868;2023-07-20T17:07:27;25.80;37.70
19180;DHT22;9722;48.754;8.868;2023-07-20T17:10:48;25.60;37.80
19180;DHT22;9722;48.754;8.868;2023-07-20T17:14:08;25.60;37.90
19180;DHT22;9722;48.754;8.868;2023-07-20T17:17:31;25.40;38.10
19180;DHT22;9722;48.754;8.868;2023-07-20T17:20:51;25.40;38.40
19180;DHT22;9722;48.754;8.868;2023-07-20T17:24:12;25.20;38.60
19180;DHT22;9722;48.754;8.868;2023-07-20T17:27:32;25.20;38.80
19180;DHT22;9722;48.754;8.868;2023-07-20T17:30:59;25.00;39.10
19180;DHT22;9722;48.754;8.868;2023-07-20T17:34:20;24.90;39.40
19180;DHT22;9722;48.754;8.868;2023-07-20T17:37:40;24.80;39.70
19180;DHT22;9722;48.754;8.868;2023-07-20T17:41:02;24.70;40.00
19180;DHT22;9722;48.754;8.868;2023-07-20T17:44:23;24.50;39.90
19180;DHT22;9722;48.754;8.868;2023-07-20T17:47:43;24.40;40.50
19180;DHT22;9722;48.754;8.868;2023-07-20T17:51:04;24.30;40.60
19180;DHT22;9722;48.754;8.868;2023-07-20T17:54:24;24.10;40.80
19180;DHT22;9722;48.754;8.868;2023-07-20T17:57:45;24.00;40.90
19180;DHT22;9722;48.754;8.868;2023-07-20T18:01:07;23.90;40.80
19180;DHT22;9722;48.754;8.868;2023-07-20T18:04:27;23.90;41.00
19180;DHT22;9722;48.754;8.868;2023-07-20T18:07:48;23.80;41.20
19180;DHT22;9722;48.754;8.868;2023-07-20T18:11:08;23.80;41.60
19180;DHT22;9722;48.754;8.868;2023-07-20T18:14:32;23.70;41.90
19180;DHT22;9722;48.754;8.868;2023-07-20T18:17:52;23.60;41.90
19180;DHT22;9722;48.754;8.868;2023-07-20T18:21:13;23.50;42.00
19180;DHT22;9722;48.754;8.868;2023-07-20T18:24:33;23.40;42.10
19180;DHT22;9722;48.754;8.868;2023-07-20T18:27:54;23.40;42.50
19180;DHT22;9722;48.754;8.868;2023-07-20T18:31:14;23.30;42.90
19180;DHT22;9722;48.754;8.868;2023-07-20T18:34:35;23.30;43.10
19180;DHT22;9722;48.754;8.868;2023-07-20T18:37:56;23.10;43.10
19180;DHT22;9722;48.754;8.868;2023-07-20T18:41:16;23.10;43.60
19180;DHT22;9722;48.754;8.868;2023-07-20T18:44:37;23.00;43.70
19180;DHT22;9722;48.754;8.868;2023-07-20T18:47:57;22.90;43.70
19180;DHT22;9722;48.754;8.868;2023-07-20T18:51:18;22.80;43.80
19180;DHT22;9722;48.754;8.868;2023-07-20T18:54:39;22.70;43.80
19180;DHT22;9722;48.754;8.868;2023-07-20T18:57:59;22.60;44.20
19180;DHT22;9722;48.754;8.868;2023-07-20T19:01:20;22.50;44.40
19180;DHT22;9722;48.754;8.868;2023-07-20T19:04:40;22.40;44.60
19180;DHT22;9722;48.754;8.868;2023-07-20T19:08:01;22.30;44.60
19180;DHT22;9722;48.754;8.868;2023-07-20T19:11:23;22.20;44.50
19180;DHT22;9722;48.754;8.868;2023-07-20T19:14:43;22.20;44.60
19180;DHT22;9722;48.754;8.868;2023-07-20T19:18:04;22.10;44.70
19180;DHT22;9722;48.754;8.868;2023-07-20T19:21:25;22.00;44.70
19180;DHT22;9722;48.754;8.868;2023-07-20T19:24:46;21.90;44.60
19180;DHT22;9722;48.754;8.868;2023-07-20T19:28:06;21.90;44.60
19180;DHT22;9722;48.754;8.868;2023-07-20T19:31:27;21.80;45.50
19180;DHT22;9722;48.754;8.868;2023-07-20T19:34:47;21.80;47.60
19180;DHT22;9722;48.754;8.868;2023-07-20T19:38:10;21.60;48.80
19180;DHT22;9722;48.754;8.868;2023-07-20T19:41:30;21.50;49.70
19180;DHT22;9722;48.754;8.868;2023-07-20T19:44:51;21.30;50.20
19180;DHT22;9722;48.754;8.868;2023-07-20T19:48:11;21.10;50.70
19180;DHT22;9722;48.754;8.868;2023-07-20T19:51:32;20.90;51.00
19180;DHT22;9722;48.754;8.868;2023-07-20T19:54:53;20.70;51.30
19180;DHT22;9722;48.754;8.868;2023-07-20T19:58:13;20.60;51.50
19180;DHT22;9722;48.754;8.868;2023-07-20T20:01:34;20.50;52.10
19180;DHT22;9722;48.754;8.868;2023-07-20T20:04:54;20.30;52.20
19180;DHT22;9722;48.754;8.868;2023-07-20T20:08:15;20.20;52.00
19180;DHT22;9722;48.754;8.868;2023-07-20T20:11:35;20.10;52.20
19180;DHT22;9722;48.754;8.868;2023-07-20T20:14:56;20.00;52.20
19180;DHT22;9722;48.754;8.868;2023-07-20T20:18:17;19.90;52.20
19180;DHT22;9722;48.754;8.868;2023-07-20T20:21:38;19.80;52.60
19180;DHT22;9722;48.754;8.868;2023-07-20T20:24:58;19.70;53.10
19180;DHT22;9722;48.754;8.868;2023-07-20T20:28:19;19.70;53.50
19180;DHT22;9722;48.754;8.868;2023-07-20T20:31:39;19.60;53.80
19180;DHT22;9722;48.754;8.868;2023-07-20T20:35:00;19.50;54.70
19180;DHT22;9722;48.754;8.868;2023-07-20T20:38:22;19.40;54.00
19180;DHT22;9722;48.754;8.868;2023-07-20T20:41:42;19.40;54.10
19180;DHT22;9722;48.754;8.868;2023-07-20T20:45:07;19.30;54.70
19180;DHT22;9722;48.754;8.868;2023-07-20T20:48:30;19.20;55.40
19180;DHT22;9722;48.754;8.868;2023-07-20T20:51:55;19.10;56.10
19180;DHT22;9722;48.754;8.868;2023-07-20T20:55:16;19.00;56.40
19180;DHT22;9722;48.754;8.868;2023-07-20T20:58:36;18.90;56.50
19180;DHT22;9722;48.754;8.868;2023-07-20T21:01:57;18.80;56.50
19180;DHT22;9722;48.754;8.868;2023-07-20T21:05:18;18.70;56.30
19180;DHT22;9722;48.754;8.868;2023-07-20T21:08:38;18.60;56.00
19180;DHT22;9722;48.754;8.868;2023-07-20T21:11:59;18.60;56.00
19180;DHT22;9722;48.754;8.868;2023-07-20T21:15:19;18.50;56.50
19180;DHT22;9722;48.754;8.868;2023-07-20T21:18:40;18.40;57.40
19180;DHT22;9722;48.754;8.868;2023-07-20T21:22:01;18.30;58.30
19180;DHT22;9722;48.754;8.868;2023-07-20T21:25:21;18.20;58.70
19180;DHT22;9722;48.754;8.868;2023-07-20T21:28:42;18.00;58.60
19180;DHT22;9722;48.754;8.868;2023-07-20T21:32:02;17.90;58.60
19180;DHT22;9722;48.754;8.868;2023-07-20T21:35:24;17.80;58.70
19180;DHT22;9722;48.754;8.868;2023-07-20T21:38:44;17.70;58.70
19180;DHT22;9722;48.754;8.868;2023-07-20T21:42:05;17.70;59.10
19180;DHT22;9722;48.754;8.868;2023-07-20T21:45:26;17.60;59.40